createdAt,value
2018-02-05T00:00:06.673Z,9.82
2018-02-05T00:02:34.193Z,10.77
2018-02-05T00:05:01.729Z,11.40
2018-02-05T00:07:29.249Z,9.90
2018-02-05T00:09:57.549Z,10.07
2018-02-05T00:12:25.063Z,10.27
2018-02-05T00:14:52.601Z,9.18
2018-02-05T00:17:20.119Z,11.30
2018-02-05T00:19:47.653Z,11.05
2018-02-05T00:22:15.947Z,9.82
2018-02-05T00:24:43.531Z,10.20
2018-02-05T00:27:11.050Z,10.30
2018-02-05T00:29:39.470Z,11.20
2018-02-05T00:32:06.988Z,10.50
2018-02-05T00:34:35.276Z,10.18
2018-02-05T00:37:03.582Z,9.00
2018-02-05T00:39:31.104Z,9.45
2018-02-05T00:41:59.404Z,9.68
2018-02-05T00:44:28.731Z,9.55
2018-02-05T00:46:56.273Z,10.50
2018-02-05T00:49:23.802Z,10.02
2018-02-05T00:51:52.114Z,10.70
2018-02-05T00:54:19.638Z,10.68
2018-02-05T00:56:47.938Z,10.43
2018-02-05T00:59:15.452Z,9.77
2018-02-05T01:01:42.995Z,10.73
2018-02-05T01:04:10.513Z,10.00
2018-02-05T01:06:38.050Z,9.10
2018-02-05T01:09:05.568Z,10.63
2018-02-05T01:11:33.113Z,8.25
2018-02-05T01:14:00.648Z,9.50
2018-02-05T01:16:28.937Z,11.25
2018-02-05T01:18:56.474Z,9.65
2018-02-05T01:21:24.757Z,9.38
2018-02-05T01:23:53.057Z,8.50
2018-02-05T01:26:20.577Z,9.27
2018-02-05T01:28:48.185Z,9.73
2018-02-05T01:31:15.755Z,9.77
2018-02-05T01:33:43.288Z,9.38
2018-02-05T01:36:10.812Z,9.98
2018-02-05T01:38:39.855Z,9.52
2018-02-05T01:41:07.368Z,9.20
2018-02-05T01:43:34.904Z,9.55
2018-02-05T01:46:02.421Z,9.25
2018-02-05T01:48:30.721Z,10.13
2018-02-05T01:50:58.236Z,8.50
2018-02-05T01:53:25.772Z,10.05
2018-02-05T01:55:53.297Z,10.27
2018-02-05T01:58:20.808Z,9.57
2018-02-05T02:00:48.352Z,9.80
2018-02-05T02:03:15.876Z,8.73
2018-02-05T02:05:43.416Z,8.55
2018-02-05T02:08:11.696Z,10.43
2018-02-05T02:10:39.996Z,9.38
2018-02-05T02:13:07.513Z,8.50
2018-02-05T02:15:35.812Z,9.18
2018-02-05T02:18:03.327Z,9.07
2018-02-05T02:20:30.865Z,7.85
2018-02-05T02:22:58.377Z,9.18
2018-02-05T02:25:26.681Z,10.13
2018-02-05T02:27:54.200Z,9.23
2018-02-05T02:30:21.734Z,9.35
2018-02-05T02:32:49.257Z,8.82
2018-02-05T02:35:16.788Z,9.43
2018-02-05T02:37:45.081Z,9.00
2018-02-05T02:40:13.384Z,9.23
2018-02-05T02:42:40.903Z,8.57
2018-02-05T02:45:09.324Z,8.40
2018-02-05T02:47:36.833Z,7.82
2018-02-05T02:50:04.354Z,8.65
2018-02-05T02:52:31.902Z,8.38
2018-02-05T02:54:59.414Z,8.68
2018-02-05T02:57:27.023Z,9.15
2018-02-05T02:59:54.589Z,8.55
2018-02-05T03:02:22.124Z,9.90
2018-02-05T03:04:50.404Z,9.18
2018-02-05T03:07:17.937Z,8.40
2018-02-05T03:09:45.453Z,9.68
2018-02-05T03:12:12.985Z,8.63
2018-02-05T03:14:40.574Z,8.75
2018-02-05T03:17:08.108Z,9.98
2018-02-05T03:19:35.625Z,8.57
2018-02-05T03:22:03.157Z,10.80
2018-02-05T03:24:30.674Z,10.25
2018-02-05T03:26:58.982Z,10.70
2018-02-05T03:29:26.495Z,9.23
2018-02-05T03:31:54.097Z,9.10
2018-02-05T03:34:21.613Z,8.70
2018-02-05T03:36:49.912Z,9.02
2018-02-05T03:39:18.198Z,9.65
2018-02-05T03:41:45.728Z,9.68
2018-02-05T03:44:13.286Z,11.75
2018-02-05T03:46:40.853Z,8.40
2018-02-05T03:49:08.373Z,9.43
2018-02-05T03:51:35.885Z,9.55
2018-02-05T03:54:04.193Z,9.23
2018-02-05T03:56:31.709Z,8.65
2018-02-05T03:58:59.250Z,10.23
2018-02-05T04:01:26.774Z,8.85
2018-02-05T04:03:54.314Z,10.70
2018-02-05T04:06:22.595Z,9.18
2018-02-05T04:08:50.189Z,9.80
2018-02-05T04:11:17.706Z,10.23
2018-02-05T04:13:46.078Z,8.93
2018-02-05T04:16:14.388Z,9.55
2018-02-05T04:18:41.925Z,10.30
2018-02-05T04:21:10.227Z,9.25
2018-02-05T04:23:37.765Z,8.98
2018-02-05T04:26:06.052Z,10.60
2018-02-05T04:28:33.638Z,11.15
2018-02-05T04:31:01.158Z,8.70
2018-02-05T04:33:29.465Z,10.13
2018-02-05T04:35:56.990Z,9.32
2018-02-05T04:38:25.337Z,8.90
2018-02-05T04:40:52.848Z,8.90
2018-02-05T04:43:20.370Z,10.23
2018-02-05T04:45:47.905Z,8.88
2018-02-05T04:48:15.429Z,10.40
2018-02-05T04:50:42.963Z,11.20
2018-02-05T04:53:11.245Z,9.45
2018-02-05T04:55:39.544Z,9.65
2018-02-05T04:58:07.065Z,8.82
2018-02-05T05:00:34.601Z,9.52
2018-02-05T05:03:02.113Z,9.02
2018-02-05T05:05:30.413Z,9.40
2018-02-05T05:07:57.933Z,9.77
2018-02-05T05:10:25.464Z,8.35
2018-02-05T05:12:52.996Z,8.73
2018-02-05T05:15:20.554Z,8.07
2018-02-05T05:17:48.065Z,9.80
2018-02-05T05:20:15.598Z,9.93
2018-02-05T05:22:43.112Z,9.43
2018-02-05T05:25:11.409Z,7.97
2018-02-05T05:27:38.921Z,8.35
2018-02-05T05:30:06.498Z,8.27
2018-02-05T05:32:34.788Z,10.38
2018-02-05T05:35:03.072Z,9.30
2018-02-05T05:37:30.613Z,8.60
2018-02-05T05:39:58.902Z,9.30
2018-02-05T05:42:27.204Z,10.10
2018-02-05T05:44:54.728Z,10.02
2018-02-05T05:47:22.264Z,8.50
2018-02-05T05:49:49.786Z,8.48
2018-02-05T05:52:17.348Z,9.20
2018-02-05T05:54:44.860Z,7.93
2018-02-05T05:57:12.393Z,9.20
2018-02-05T05:59:39.906Z,9.95
2018-02-05T06:02:08.212Z,9.00
2018-02-05T06:04:35.725Z,8.63
2018-02-05T06:07:03.256Z,8.52
2018-02-05T06:09:30.776Z,7.85
2018-02-05T06:11:58.313Z,8.45
2018-02-05T06:14:26.597Z,8.60
2018-02-05T06:16:54.894Z,7.12
2018-02-05T06:19:22.415Z,7.78
2018-02-05T06:21:50.031Z,8.38
2018-02-05T06:24:17.546Z,7.60
2018-02-05T06:26:45.075Z,7.72
2018-02-05T06:29:12.613Z,8.07
2018-02-05T06:31:40.130Z,10.10
2018-02-05T06:34:08.429Z,7.80
2018-02-05T06:36:36.713Z,8.90
2018-02-05T06:39:04.277Z,8.15
2018-02-05T06:41:31.793Z,7.68
2018-02-05T06:43:59.326Z,8.43
2018-02-05T06:46:26.846Z,7.57
2018-02-05T06:48:54.409Z,8.80
2018-02-05T06:51:34.006Z,8.60
2018-02-05T06:54:13.442Z,7.22
2018-02-05T06:56:40.958Z,8.77
2018-02-05T06:59:08.501Z,7.32
2018-02-05T07:01:36.782Z,9.50
2018-02-05T07:04:05.080Z,7.87
2018-02-05T07:06:32.592Z,7.65
2018-02-05T07:09:00.128Z,7.95
2018-02-05T07:11:27.640Z,9.18
2018-02-05T07:13:55.980Z,7.85
2018-02-05T07:16:23.505Z,8.02
2018-02-05T07:18:51.016Z,7.97
2018-02-05T07:21:18.625Z,8.38
2018-02-05T07:23:46.136Z,8.10
2018-02-05T07:26:13.668Z,9.27
2018-02-05T07:28:41.178Z,8.32
2018-02-05T07:31:09.473Z,6.95
2018-02-05T07:33:36.980Z,7.53
2018-02-05T07:36:04.513Z,6.82
2018-02-05T07:38:32.022Z,6.97
2018-02-05T07:40:59.645Z,6.55
2018-02-05T07:43:27.191Z,6.00
2018-02-05T07:45:54.704Z,6.20
2018-02-05T07:48:22.223Z,6.72
2018-02-05T07:50:49.753Z,5.65
2018-02-05T07:53:17.265Z,6.37
2018-02-05T07:55:44.799Z,6.35
2018-02-05T07:58:12.314Z,5.70
2018-02-05T08:00:40.617Z,6.72
2018-02-05T08:03:08.128Z,5.90
2018-02-05T08:05:35.657Z,6.25
2018-02-05T08:08:03.180Z,7.07
2018-02-05T08:10:30.750Z,6.30
2018-02-05T08:12:58.563Z,5.90
2018-02-05T08:15:26.078Z,6.50
2018-02-05T08:17:53.604Z,6.55
2018-02-05T08:20:21.885Z,5.20
2018-02-05T08:22:50.210Z,6.37
2018-02-05T08:25:17.733Z,6.20
2018-02-05T08:27:46.044Z,5.75
2018-02-05T08:30:13.601Z,5.87
2018-02-05T08:32:41.137Z,6.65
2018-02-05T08:35:08.691Z,5.80
2018-02-05T08:37:36.202Z,6.60
2018-02-05T08:40:03.723Z,6.63
2018-02-05T08:42:31.301Z,5.75
2018-02-05T08:44:58.861Z,5.70
2018-02-05T08:47:26.373Z,5.80
2018-02-05T08:49:53.900Z,6.07
2018-02-05T08:52:21.406Z,6.70
2018-02-05T08:54:49.720Z,6.57
2018-02-05T08:57:17.229Z,5.80
2018-02-05T08:59:44.841Z,6.53
2018-02-05T09:02:12.344Z,5.33
2018-02-05T09:04:40.676Z,6.43
2018-02-05T09:07:08.185Z,5.77
2018-02-05T09:09:35.717Z,6.60
2018-02-05T09:12:03.237Z,6.27
2018-02-05T09:14:31.637Z,6.23
2018-02-05T09:16:59.202Z,6.10
2018-02-05T09:19:26.765Z,5.77
2018-02-05T09:21:54.322Z,6.40
2018-02-05T09:24:21.857Z,5.80
2018-02-05T09:26:49.369Z,6.60
2018-02-05T09:29:16.997Z,6.30
2018-02-05T09:31:44.513Z,6.20
2018-02-05T09:34:12.041Z,5.63
2018-02-05T09:36:39.557Z,5.97
2018-02-05T09:39:07.085Z,5.57
2018-02-05T09:41:34.599Z,6.57
2018-02-05T09:44:02.257Z,6.03
2018-02-05T09:46:29.822Z,6.63
2018-02-05T09:48:57.334Z,6.27
2018-02-05T09:51:24.937Z,5.53
2018-02-05T09:53:52.453Z,7.60
2018-02-05T09:56:19.986Z,6.63
2018-02-05T09:58:47.498Z,6.80
2018-02-05T10:01:15.793Z,6.80
2018-02-05T10:03:43.305Z,6.10
2018-02-05T10:06:10.835Z,6.93
2018-02-05T10:08:38.344Z,6.40
2018-02-05T10:11:06.648Z,7.20
2018-02-05T10:13:34.161Z,7.33
2018-02-05T10:16:01.684Z,6.33
2018-02-05T10:18:29.197Z,6.70
2018-02-05T10:20:57.493Z,7.63
2018-02-05T10:23:25.073Z,6.80
2018-02-05T10:25:52.613Z,7.67
2018-02-05T10:28:20.130Z,6.60
2018-02-05T10:30:47.645Z,7.23
2018-02-05T10:33:15.179Z,8.63
2018-02-05T10:35:43.466Z,7.80
2018-02-05T10:38:11.770Z,6.83
2018-02-05T10:40:39.284Z,8.70
2018-02-05T10:43:06.817Z,7.90
2018-02-05T10:45:34.328Z,7.43
2018-02-05T10:48:02.625Z,8.23
2018-02-05T10:50:30.141Z,7.27
2018-02-05T10:52:57.674Z,8.40
2018-02-05T10:55:25.181Z,8.20
2018-02-05T10:57:53.482Z,7.70
2018-02-05T11:00:20.996Z,7.90
2018-02-05T11:02:49.322Z,9.20
2018-02-05T11:05:16.837Z,8.57
2018-02-05T11:07:45.116Z,8.43
2018-02-05T11:10:12.648Z,8.13
2018-02-05T11:12:40.166Z,9.30
2018-02-05T11:15:07.701Z,7.77
2018-02-05T11:17:35.981Z,8.20
2018-02-05T11:20:04.283Z,8.83
2018-02-05T11:22:31.801Z,8.83
2018-02-05T11:24:59.339Z,8.70
2018-02-05T11:27:26.849Z,8.57
2018-02-05T11:29:54.388Z,8.00
2018-02-05T11:32:22.670Z,8.57
2018-02-05T11:34:50.964Z,8.10
2018-02-05T11:37:19.241Z,7.90
2018-02-05T11:39:46.879Z,7.80
2018-02-05T11:42:14.364Z,6.80
2018-02-05T11:44:41.881Z,7.90
2018-02-05T11:47:09.412Z,8.20
2018-02-05T11:49:36.918Z,7.53
2018-02-05T11:52:05.226Z,7.97
2018-02-05T11:54:32.747Z,7.07
2018-02-05T11:57:00.286Z,7.10
2018-02-05T11:59:27.788Z,6.17
2018-02-05T12:01:56.084Z,6.77
2018-02-05T12:04:23.596Z,6.57
2018-02-05T12:06:51.129Z,7.13
2018-02-05T12:09:18.678Z,5.77
2018-02-05T12:11:46.235Z,5.97
2018-02-05T12:14:13.798Z,5.57
2018-02-05T12:16:41.334Z,6.60
2018-02-05T12:19:08.844Z,7.77
2018-02-05T12:21:36.475Z,5.43
2018-02-05T12:24:03.988Z,6.30
2018-02-05T12:26:32.321Z,5.90
2018-02-05T12:28:59.833Z,5.75
2018-02-05T12:31:28.109Z,5.57
2018-02-05T12:33:56.406Z,5.97
2018-02-05T12:36:24.773Z,6.18
2018-02-05T12:38:53.069Z,5.78
2018-02-05T12:41:20.581Z,5.93
2018-02-05T12:43:48.116Z,5.97
2018-02-05T12:46:15.621Z,5.68
2018-02-05T12:48:43.958Z,5.07
2018-02-05T12:51:11.810Z,5.45
2018-02-05T12:53:39.416Z,5.55
2018-02-05T12:56:07.115Z,5.45
2018-02-05T12:58:35.128Z,5.90
2018-02-05T13:01:03.225Z,5.22
2018-02-05T13:03:33.734Z,5.25
2018-02-05T13:06:10.034Z,4.90
2018-02-05T13:08:37.646Z,5.03
2018-02-05T13:11:05.212Z,5.62
2018-02-05T13:13:32.769Z,5.90
2018-02-05T13:16:00.281Z,6.00
2018-02-05T13:18:27.818Z,6.65
2018-02-05T13:20:55.326Z,5.12
2018-02-05T13:23:23.625Z,5.40
2018-02-05T13:25:51.137Z,6.80
2018-02-05T13:28:18.652Z,6.40
2018-02-05T13:30:46.189Z,6.65
2018-02-05T13:33:13.706Z,6.18
2018-02-05T13:35:41.243Z,6.72
2018-02-05T13:38:08.758Z,6.30
2018-02-05T13:40:37.059Z,6.00
2018-02-05T13:43:04.635Z,6.90
2018-02-05T13:45:32.167Z,6.10
2018-02-05T13:48:00.437Z,6.28
2018-02-05T13:50:28.734Z,6.60
2018-02-05T13:52:56.251Z,5.65
2018-02-05T13:55:23.777Z,7.07
2018-02-05T13:57:51.289Z,6.25
2018-02-05T14:00:19.581Z,6.25
2018-02-05T14:02:47.096Z,6.20
2018-02-05T14:05:14.646Z,6.18
2018-02-05T14:07:44.556Z,6.25
2018-02-05T14:10:12.096Z,6.60
2018-02-05T14:12:39.658Z,6.68
2018-02-05T14:15:07.165Z,6.30
2018-02-05T14:17:36.205Z,6.35
2018-02-05T14:20:03.722Z,6.37
2018-02-05T14:22:31.254Z,6.78
2018-02-05T14:24:58.760Z,6.60
2018-02-05T14:27:27.057Z,7.30
2018-02-05T14:29:54.629Z,6.53
2018-02-05T14:32:22.161Z,6.47
2018-02-05T14:34:50.437Z,7.10
2018-02-05T14:37:18.736Z,5.82
2018-02-05T14:39:46.249Z,6.18
2018-02-05T14:42:13.776Z,6.60
2018-02-05T14:44:41.288Z,5.90
2018-02-05T14:47:09.602Z,7.57
2018-02-05T14:49:37.117Z,5.50
2018-02-05T14:52:04.628Z,6.22
2018-02-05T14:54:32.160Z,6.12
2018-02-05T14:57:00.436Z,7.62
2018-02-05T14:59:28.724Z,6.28
2018-02-05T15:01:56.237Z,7.87
2018-02-05T15:04:23.772Z,8.60
2018-02-05T15:06:51.280Z,7.32
2018-02-05T15:09:19.593Z,8.27
2018-02-05T15:11:47.105Z,8.27
2018-02-05T15:14:14.638Z,8.27
2018-02-05T15:16:42.147Z,7.30
2018-02-05T15:19:10.469Z,8.43
2018-02-05T15:21:38.014Z,8.43
2018-02-05T15:24:05.543Z,7.68
2018-02-05T15:26:33.814Z,9.15
2018-02-05T15:29:02.110Z,9.30
2018-02-05T15:31:30.389Z,8.10
2018-02-05T15:33:57.905Z,8.55
2018-02-05T15:36:25.443Z,8.23
2018-02-05T15:38:52.953Z,8.80
2018-02-05T15:41:20.485Z,7.07
2018-02-05T15:43:48.023Z,8.88
2018-02-05T15:46:15.557Z,9.18
2018-02-05T15:48:43.860Z,7.60
2018-02-05T15:51:11.414Z,9.07
2018-02-05T15:53:38.932Z,10.02
2018-02-05T15:56:06.474Z,10.75
2018-02-05T15:58:33.981Z,8.85
2018-02-05T16:01:01.556Z,9.20
2018-02-05T16:03:29.089Z,9.52
2018-02-05T16:05:57.496Z,8.85
2018-02-05T16:08:25.019Z,8.57
2018-02-05T16:10:53.333Z,8.60
2018-02-05T16:13:20.857Z,9.18
2018-02-05T16:15:49.133Z,8.40
2018-02-05T16:18:17.428Z,9.05
2018-02-05T16:20:45.713Z,8.27
2018-02-05T16:23:13.286Z,8.10
2018-02-05T16:25:40.801Z,9.02
2018-02-05T16:28:08.413Z,10.35
2018-02-05T16:30:35.970Z,10.15
2018-02-05T16:33:03.530Z,8.30
2018-02-05T16:35:31.086Z,8.32
2018-02-05T16:37:58.617Z,9.35
2018-02-05T16:40:26.897Z,7.87
2018-02-05T16:42:55.309Z,10.60
2018-02-05T16:45:22.821Z,9.45
2018-02-05T16:47:50.358Z,8.77
2018-02-05T16:50:17.889Z,8.75
2018-02-05T16:52:45.433Z,9.45
2018-02-05T16:55:12.944Z,9.52
2018-02-05T16:57:40.476Z,9.10
2018-02-05T17:00:07.993Z,9.38
2018-02-05T17:02:36.294Z,9.55
2018-02-05T17:05:03.810Z,9.38
2018-02-05T17:07:31.429Z,9.65
2018-02-05T17:09:58.948Z,9.02
2018-02-05T17:12:27.244Z,9.65
2018-02-05T17:14:54.760Z,9.90
2018-02-05T17:17:22.341Z,9.82
2018-02-05T17:19:49.858Z,10.70
2018-02-05T17:22:17.374Z,9.75
2018-02-05T17:24:45.677Z,10.65
2018-02-05T17:27:13.246Z,12.30
2018-02-05T17:29:40.785Z,11.93
2018-02-05T17:32:08.304Z,10.68
2018-02-05T17:34:35.849Z,12.00
2018-02-05T17:37:03.370Z,10.75
2018-02-05T17:39:30.905Z,12.40
2018-02-05T17:41:59.189Z,11.77
2018-02-05T17:44:27.595Z,12.18
2018-02-05T17:46:55.974Z,13.98
2018-02-05T17:49:23.510Z,11.60
2018-02-05T17:51:51.797Z,10.40
2018-02-05T17:54:20.109Z,11.38
2018-02-05T17:56:47.624Z,10.88
2018-02-05T17:59:15.940Z,11.20
2018-02-05T18:01:43.459Z,12.18
2018-02-05T18:04:11.773Z,12.50
2018-02-05T18:06:39.289Z,12.07
2018-02-05T18:09:06.905Z,11.55
2018-02-05T18:11:34.507Z,10.70
2018-02-05T18:14:02.059Z,13.30
2018-02-05T18:16:29.583Z,11.07
2018-02-05T18:18:57.120Z,12.05
2018-02-05T18:21:25.401Z,12.15
2018-02-05T18:23:53.705Z,13.70
2018-02-05T18:26:21.220Z,10.57
2018-02-05T18:28:49.533Z,12.90
2018-02-05T18:31:17.054Z,12.35
2018-02-05T18:33:44.588Z,13.23
2018-02-05T18:36:12.106Z,12.82
2018-02-05T18:38:39.646Z,11.98
2018-02-05T18:41:07.932Z,13.95
2018-02-05T18:43:36.235Z,11.45
2018-02-05T18:46:03.754Z,10.43
2018-02-05T18:48:32.071Z,11.25
2018-02-05T18:50:59.597Z,11.45
2018-02-05T18:53:27.921Z,12.23
2018-02-05T18:55:55.440Z,10.85
2018-02-05T18:58:23.732Z,12.30
2018-02-05T19:00:51.273Z,13.80
2018-02-05T19:03:19.555Z,11.55
2018-02-05T19:05:47.864Z,12.15
2018-02-05T19:08:15.386Z,11.07
2018-02-05T19:10:43.705Z,11.85
2018-02-05T19:13:11.233Z,13.77
2018-02-05T19:15:39.641Z,12.35
2018-02-05T19:18:07.165Z,11.85
2018-02-05T19:20:34.700Z,11.93
2018-02-05T19:23:02.223Z,13.45
2018-02-05T19:25:29.762Z,10.82
2018-02-05T19:27:58.049Z,10.90
2018-02-05T19:30:25.586Z,11.70
2018-02-05T19:32:53.868Z,10.20
2018-02-05T19:35:22.178Z,11.80
2018-02-05T19:37:49.732Z,10.95
2018-02-05T19:40:17.315Z,12.25
2018-02-05T19:42:44.838Z,10.80
2018-02-05T19:45:13.197Z,10.55
2018-02-05T19:47:40.721Z,11.70
2018-02-05T19:50:08.252Z,11.77
2018-02-05T19:52:36.026Z,11.30
2018-02-05T19:55:03.568Z,11.65
2018-02-05T19:57:31.850Z,11.50
2018-02-05T19:59:59.430Z,11.93
2018-02-05T20:02:27.008Z,12.00
2018-02-05T20:04:54.545Z,11.52
2018-02-05T20:07:22.103Z,11.40
2018-02-05T20:09:49.637Z,10.50
2018-02-05T20:12:17.926Z,10.50
2018-02-05T20:14:46.229Z,9.50
2018-02-05T20:17:13.761Z,12.07
2018-02-05T20:19:42.166Z,10.82
2018-02-05T20:22:09.742Z,11.07
2018-02-05T20:24:37.280Z,10.40
2018-02-05T20:27:04.797Z,9.20
2018-02-05T20:29:32.384Z,11.82
2018-02-05T20:32:00.667Z,12.48
2018-02-05T20:34:28.213Z,10.20
2018-02-05T20:36:56.495Z,12.07
2018-02-05T20:39:24.804Z,10.70
2018-02-05T20:41:52.325Z,10.52
2018-02-05T20:44:20.625Z,11.38
2018-02-05T20:46:48.144Z,11.45
2018-02-05T20:49:15.688Z,11.50
2018-02-05T20:51:43.214Z,11.52
2018-02-05T20:54:10.737Z,11.23
2018-02-05T20:56:38.276Z,12.20
2018-02-05T20:59:05.789Z,11.20
2018-02-05T21:01:33.325Z,11.75
2018-02-05T21:04:01.638Z,11.07
2018-02-05T21:06:29.220Z,11.00
2018-02-05T21:08:56.862Z,11.73
2018-02-05T21:11:24.449Z,10.95
2018-02-05T21:13:51.987Z,10.27
2018-02-05T21:16:19.529Z,12.35
2018-02-05T21:18:47.044Z,12.10
2018-02-05T21:21:14.594Z,11.27
2018-02-05T21:23:42.271Z,10.35
2018-02-05T21:26:09.846Z,12.55
2018-02-05T21:28:37.364Z,11.77
2018-02-05T21:31:04.987Z,11.23
2018-02-05T21:33:32.495Z,11.63
2018-02-05T21:36:00.039Z,10.30
2018-02-05T21:38:27.561Z,12.10
2018-02-05T21:40:55.860Z,12.48
2018-02-05T21:43:23.380Z,12.48
2018-02-05T21:45:51.035Z,13.25
2018-02-05T21:48:18.557Z,13.10
2018-02-05T21:50:46.097Z,11.00
2018-02-05T21:53:14.381Z,12.00
2018-02-05T21:55:41.914Z,12.88
2018-02-05T21:58:09.523Z,11.50
2018-02-05T22:00:37.086Z,11.30
2018-02-05T22:03:04.605Z,10.45
2018-02-05T22:05:32.163Z,11.35
2018-02-05T22:07:59.701Z,13.55
2018-02-05T22:10:27.265Z,11.77
2018-02-05T22:12:54.887Z,11.63
2018-02-05T22:15:22.456Z,11.43
2018-02-05T22:17:50.070Z,11.77
2018-02-05T22:20:17.554Z,12.32
2018-02-05T22:22:45.089Z,12.48
2018-02-05T22:25:12.613Z,13.13
2018-02-05T22:27:40.157Z,10.95
2018-02-05T22:30:07.719Z,14.70
2018-02-05T22:32:35.262Z,12.75
2018-02-05T22:35:02.795Z,13.35
2018-02-05T22:37:30.329Z,11.18
2018-02-05T22:39:57.844Z,12.10
2018-02-05T22:42:25.381Z,11.63
2018-02-05T22:44:53.661Z,12.68
2018-02-05T22:47:21.977Z,11.88
2018-02-05T22:49:49.499Z,12.07
2018-02-05T22:52:17.812Z,12.30
2018-02-05T22:54:45.373Z,11.40
2018-02-05T22:57:12.893Z,12.37
2018-02-05T22:59:41.197Z,12.05
2018-02-05T23:02:08.713Z,13.07
2018-02-05T23:04:36.328Z,11.57
2018-02-05T23:07:03.895Z,11.70
2018-02-05T23:09:31.457Z,11.27
2018-02-05T23:11:58.979Z,13.07
2018-02-05T23:14:27.281Z,11.88
2018-02-05T23:16:54.882Z,12.15
2018-02-05T23:19:22.413Z,12.07
2018-02-05T23:21:49.941Z,11.73
2018-02-05T23:24:17.480Z,12.68
2018-02-05T23:26:45.003Z,12.40
2018-02-05T23:29:12.545Z,11.23
2018-02-05T23:31:40.066Z,11.75
2018-02-05T23:34:07.604Z,9.93
2018-02-05T23:36:35.117Z,11.45
2018-02-05T23:39:03.397Z,12.57
2018-02-05T23:41:31.702Z,10.80
2018-02-05T23:43:59.226Z,12.65
2018-02-05T23:46:27.524Z,10.50
2018-02-05T23:48:55.097Z,10.85
2018-02-05T23:51:22.642Z,11.80
2018-02-05T23:53:50.221Z,11.75
2018-02-05T23:56:17.778Z,10.75
2018-02-05T23:58:45.303Z,10.35
